createdAt,value
2023-04-15T00:00:34.033Z,4.70
2023-04-15T00:03:21.131Z,4.67
2023-04-15T00:06:08.453Z,4.65
2023-04-15T00:08:55.765Z,4.56
2023-04-15T00:11:42.763Z,4.53
2023-04-15T00:14:29.682Z,4.56
2023-04-15T00:17:17.707Z,4.57
2023-04-15T00:20:06.432Z,4.58
2023-04-15T00:22:53.655Z,4.60
2023-04-15T00:25:40.790Z,4.53
2023-04-15T00:28:28.053Z,4.52
2023-04-15T00:31:15.409Z,4.53
2023-04-15T00:34:02.580Z,4.60
2023-04-15T00:36:49.737Z,4.63
2023-04-15T00:39:36.731Z,4.52
2023-04-15T00:42:25.008Z,4.55
2023-04-15T00:45:12.154Z,4.59
2023-04-15T00:47:59.682Z,4.48
2023-04-15T00:50:46.657Z,4.45
2023-04-15T00:53:33.565Z,4.39
2023-04-15T00:56:24.453Z,4.43
2023-04-15T00:59:11.846Z,4.38
2023-04-15T01:01:59.222Z,4.42
2023-04-15T01:04:46.199Z,4.36
2023-04-15T01:07:33.299Z,4.38
2023-04-15T01:10:20.278Z,4.26
2023-04-15T01:13:07.332Z,4.20
2023-04-15T01:15:56.130Z,4.24
2023-04-15T01:18:43.345Z,4.09
2023-04-15T01:21:30.268Z,4.10
2023-04-15T01:24:18.954Z,4.21
2023-04-15T01:27:06.183Z,4.17
2023-04-15T01:29:53.132Z,4.13
2023-04-15T01:32:40.146Z,4.12
2023-04-15T01:35:27.758Z,4.14
2023-04-15T01:38:14.661Z,4.20
2023-04-15T01:41:02.128Z,4.26
2023-04-15T01:43:49.101Z,4.28
2023-04-15T01:46:36.465Z,4.35
2023-04-15T01:49:23.981Z,4.30
2023-04-15T01:52:10.902Z,4.37
2023-04-15T01:54:57.843Z,4.30
2023-04-15T01:57:45.299Z,4.35
2023-04-15T02:00:32.674Z,4.33
2023-04-15T02:03:19.697Z,4.24
2023-04-15T02:06:06.777Z,4.17
2023-04-15T02:08:53.732Z,4.17
2023-04-15T02:11:40.669Z,4.10
2023-04-15T02:14:27.570Z,4.10
2023-04-15T02:17:14.487Z,3.98
2023-04-15T02:20:01.587Z,3.97
2023-04-15T02:22:48.787Z,3.97
2023-04-15T02:25:35.697Z,3.99
2023-04-15T02:28:22.622Z,3.97
2023-04-15T02:31:09.765Z,3.85
2023-04-15T02:33:56.702Z,3.80
2023-04-15T02:36:43.595Z,3.88
2023-04-15T02:39:30.493Z,3.89
2023-04-15T02:42:17.432Z,3.96
2023-04-15T02:45:04.995Z,3.98
2023-04-15T02:47:51.970Z,3.99
2023-04-15T02:50:41.922Z,3.96
2023-04-15T02:53:28.976Z,3.93
2023-04-15T02:56:17.085Z,3.96
2023-04-15T02:59:04.758Z,4.00
2023-04-15T03:01:51.831Z,4.05
2023-04-15T03:04:39.833Z,4.01
2023-04-15T03:07:26.771Z,4.05
2023-04-15T03:10:13.968Z,4.08
2023-04-15T03:13:01.209Z,4.13
2023-04-15T03:15:48.468Z,4.10
2023-04-15T03:18:35.633Z,4.07
2023-04-15T03:21:23.903Z,4.03
2023-04-15T03:24:10.858Z,4.05
2023-04-15T03:26:57.895Z,4.01
2023-04-15T03:29:44.818Z,3.97
2023-04-15T03:32:31.808Z,3.98
2023-04-15T03:35:18.733Z,3.81
2023-04-15T03:38:05.756Z,3.79
2023-04-15T03:40:52.690Z,3.79
2023-04-15T03:43:39.591Z,3.85
2023-04-15T03:46:26.800Z,3.87
2023-04-15T03:49:14.236Z,3.86
2023-04-15T03:52:01.390Z,3.85
2023-04-15T03:54:48.298Z,3.90
2023-04-15T03:57:39.148Z,3.95
2023-04-15T04:00:26.218Z,3.90
2023-04-15T04:03:13.253Z,3.96
2023-04-15T04:06:00.304Z,3.97
2023-04-15T04:08:47.359Z,4.00
2023-04-15T04:11:34.305Z,4.01
2023-04-15T04:14:21.329Z,4.02
2023-04-15T04:17:08.543Z,4.03
2023-04-15T04:19:55.659Z,4.06
2023-04-15T04:22:42.612Z,4.03
2023-04-15T04:25:29.512Z,4.01
2023-04-15T04:28:16.706Z,3.85
2023-04-15T04:31:03.648Z,3.88
2023-04-15T04:33:50.562Z,3.86
2023-04-15T04:36:37.486Z,3.83
2023-04-15T04:39:24.401Z,3.77
2023-04-15T04:42:11.304Z,3.88
2023-04-15T04:44:58.228Z,3.88
2023-04-15T04:47:45.382Z,3.80
2023-04-15T04:50:32.599Z,3.86
2023-04-15T04:53:19.625Z,3.94
2023-04-15T04:56:06.691Z,3.93
2023-04-15T04:58:53.570Z,4.03
2023-04-15T05:01:40.976Z,4.01
2023-04-15T05:04:28.104Z,3.97
2023-04-15T05:07:14.993Z,4.04
2023-04-15T05:10:01.966Z,4.00
2023-04-15T05:12:48.892Z,4.15
2023-04-15T05:15:37.074Z,4.14
2023-04-15T05:18:24.250Z,4.08
2023-04-15T05:21:11.527Z,4.02
2023-04-15T05:23:58.408Z,4.12
2023-04-15T05:26:45.552Z,4.08
2023-04-15T05:29:32.464Z,4.10
2023-04-15T05:32:19.403Z,4.04
2023-04-15T05:35:08.045Z,4.05
2023-04-15T05:37:54.977Z,4.11
2023-04-15T05:40:42.030Z,4.09
2023-04-15T05:43:28.965Z,4.22
2023-04-15T05:46:16.513Z,4.22
2023-04-15T05:49:03.702Z,4.30
2023-04-15T05:51:51.414Z,4.29
2023-04-15T05:54:38.980Z,4.21
2023-04-15T05:57:26.334Z,4.25
2023-04-15T06:00:14.325Z,4.25
2023-04-15T06:03:01.337Z,4.31
2023-04-15T06:05:48.486Z,4.35
2023-04-15T06:08:35.441Z,4.45
2023-04-15T06:11:22.541Z,4.40
2023-04-15T06:14:09.449Z,4.37
2023-04-15T06:16:56.392Z,4.36
2023-04-15T06:19:43.240Z,4.38
2023-04-15T06:22:30.276Z,4.41
2023-04-15T06:25:17.190Z,4.49
2023-04-15T06:28:04.417Z,4.40
2023-04-15T06:30:51.578Z,4.46
2023-04-15T06:33:39.631Z,4.57
2023-04-15T06:36:26.563Z,4.63
2023-04-15T06:39:13.559Z,4.55
2023-04-15T06:42:01.447Z,4.62
2023-04-15T06:44:48.380Z,4.58
2023-04-15T06:47:35.310Z,4.61
2023-04-15T06:50:22.234Z,4.50
2023-04-15T06:53:09.144Z,4.62
2023-04-15T06:55:56.116Z,4.56
2023-04-15T06:58:43.000Z,4.64
2023-04-15T07:01:30.010Z,4.69
2023-04-15T07:04:17.078Z,4.70
2023-04-15T07:07:04.238Z,4.52
2023-04-15T07:09:52.323Z,4.59
2023-04-15T07:12:39.267Z,4.64
2023-04-15T07:15:26.180Z,4.61
2023-04-15T07:18:13.784Z,4.61
2023-04-15T07:21:00.896Z,4.57
2023-04-15T07:23:47.800Z,4.63
2023-04-15T07:26:34.691Z,4.58
2023-04-15T07:29:21.617Z,4.58
2023-04-15T07:32:08.514Z,4.58
2023-04-15T07:34:55.476Z,4.53
2023-04-15T07:37:43.401Z,4.53
2023-04-15T07:40:30.318Z,4.35
2023-04-15T07:43:17.249Z,4.38
2023-04-15T07:46:04.715Z,4.35
2023-04-15T07:48:52.265Z,4.27
2023-04-15T07:51:39.211Z,4.40
2023-04-15T07:54:26.120Z,4.48
2023-04-15T07:57:12.941Z,4.57
2023-04-15T08:00:00.527Z,4.46
2023-04-15T08:02:48.378Z,4.51
2023-04-15T08:05:35.623Z,4.51
2023-04-15T08:08:22.783Z,4.51
2023-04-15T08:11:09.817Z,4.45
2023-04-15T08:13:57.886Z,4.32
2023-04-15T08:16:44.822Z,4.37
2023-04-15T08:19:31.716Z,4.43
2023-04-15T08:22:20.562Z,4.56
2023-04-15T08:25:09.505Z,4.64
2023-04-15T08:27:57.590Z,4.71
2023-04-15T08:30:44.521Z,4.52
2023-04-15T08:33:31.548Z,4.52
2023-04-15T08:36:18.991Z,4.48
2023-04-15T08:39:06.000Z,4.64
2023-04-15T08:42:02.809Z,4.64
2023-04-15T08:44:51.163Z,4.53
2023-04-15T08:47:39.875Z,4.70
2023-04-15T08:50:29.385Z,4.67
2023-04-15T08:53:16.437Z,4.67
2023-04-15T08:56:07.614Z,4.68
2023-04-15T08:58:55.316Z,4.81
2023-04-15T09:01:42.952Z,4.91
2023-04-15T09:04:30.164Z,4.92
2023-04-15T09:07:17.354Z,4.86
2023-04-15T09:10:04.717Z,4.88
2023-04-15T09:12:51.904Z,4.72
2023-04-15T09:15:39.012Z,4.73
2023-04-15T09:18:36.653Z,4.73
2023-04-15T09:21:24.632Z,4.80
2023-04-15T09:24:11.660Z,4.74
2023-04-15T09:26:58.750Z,4.72
2023-04-15T09:29:50.663Z,4.87
2023-04-15T09:32:49.648Z,4.96
2023-04-15T09:35:37.017Z,4.93
2023-04-15T09:38:23.938Z,4.99
2023-04-15T09:41:19.633Z,5.03
2023-04-15T09:44:06.828Z,5.02
2023-04-15T09:46:53.785Z,4.93
2023-04-15T09:49:55.625Z,4.85
2023-04-15T09:52:43.757Z,4.90
2023-04-15T09:55:33.373Z,4.90
2023-04-15T09:58:26.446Z,4.86
2023-04-15T10:01:13.559Z,4.95
2023-04-15T10:04:04.357Z,5.00
2023-04-15T10:06:51.893Z,5.01
2023-04-15T10:09:39.690Z,5.02
2023-04-15T10:12:27.750Z,5.14
2023-04-15T10:15:17.536Z,5.16
2023-04-15T10:18:05.662Z,5.25
2023-04-15T10:20:53.303Z,5.32
2023-04-15T10:23:40.886Z,5.18
2023-04-15T10:26:28.745Z,5.31
2023-04-15T10:29:16.588Z,5.33
2023-04-15T10:32:04.453Z,5.37
2023-04-15T10:34:54.483Z,5.43
2023-04-15T10:37:41.795Z,5.39
2023-04-15T10:40:33.657Z,5.43
2023-04-15T10:43:27.249Z,5.39
2023-04-15T10:46:14.952Z,5.31
2023-04-15T10:49:17.461Z,5.27
2023-04-15T10:52:04.837Z,5.39
2023-04-15T10:55:18.261Z,5.46
2023-04-15T10:58:05.934Z,5.47
2023-04-15T11:00:53.990Z,5.50
2023-04-15T11:03:43.441Z,5.48
2023-04-15T11:06:45.534Z,5.51
2023-04-15T11:09:33.800Z,5.51
2023-04-15T11:12:20.801Z,5.53
2023-04-15T11:15:32.513Z,5.53
2023-04-15T11:18:28.140Z,5.54
2023-04-15T11:21:15.395Z,5.68
2023-04-15T11:24:03.504Z,5.69
2023-04-15T11:26:50.868Z,5.84
2023-04-15T11:29:38.818Z,5.93
2023-04-15T11:32:25.826Z,5.84
2023-04-15T11:35:12.813Z,6.00
2023-04-15T11:38:03.857Z,5.87
2023-04-15T11:40:51.619Z,5.93
2023-04-15T11:43:38.501Z,6.05
2023-04-15T11:46:32.052Z,5.98
2023-04-15T11:49:30.683Z,6.02
2023-04-15T11:52:17.604Z,6.05
2023-04-15T11:55:04.800Z,6.11
2023-04-15T11:58:10.103Z,5.98
2023-04-15T12:01:01.209Z,6.04
2023-04-15T12:03:49.616Z,6.11
2023-04-15T12:06:38.936Z,6.20
2023-04-15T12:09:25.911Z,6.10
2023-04-15T12:12:12.875Z,6.21
2023-04-15T12:15:00.000Z,6.08
2023-04-15T12:17:51.444Z,6.08
2023-04-15T12:20:45.697Z,6.17
2023-04-15T12:23:37.820Z,6.08
2023-04-15T12:26:34.886Z,6.00
2023-04-15T12:29:26.809Z,5.93
2023-04-15T12:32:15.117Z,5.98
2023-04-15T12:35:02.037Z,5.93
2023-04-15T12:37:48.946Z,5.96
2023-04-15T12:40:35.825Z,6.02
2023-04-15T12:43:22.713Z,6.05
2023-04-15T12:46:10.219Z,6.07
2023-04-15T12:48:57.160Z,5.99
2023-04-15T12:51:44.719Z,5.96
2023-04-15T12:54:32.176Z,5.90
2023-04-15T12:57:19.102Z,5.90
2023-04-15T13:00:08.412Z,5.84
2023-04-15T13:02:55.476Z,5.76
2023-04-15T13:05:43.107Z,5.73
2023-04-15T13:08:30.615Z,5.84
2023-04-15T13:11:17.568Z,5.89
2023-04-15T13:14:06.565Z,5.77
2023-04-15T13:16:53.934Z,5.87
2023-04-15T13:19:41.022Z,5.89
2023-04-15T13:22:27.876Z,5.84
2023-04-15T13:25:14.843Z,5.89
2023-04-15T13:28:01.749Z,5.96
2023-04-15T13:30:49.400Z,6.03
2023-04-15T13:33:36.483Z,6.02
2023-04-15T13:36:23.400Z,6.08
2023-04-15T13:39:10.287Z,6.07
2023-04-15T13:41:57.536Z,6.13
2023-04-15T13:44:44.443Z,6.20
2023-04-15T13:47:31.368Z,6.19
2023-04-15T13:50:18.316Z,6.31
2023-04-15T13:53:05.691Z,6.28
2023-04-15T13:55:52.582Z,6.23
2023-04-15T13:58:41.402Z,6.17
2023-04-15T14:01:28.951Z,6.12
2023-04-15T14:04:16.137Z,6.04
2023-04-15T14:07:05.331Z,6.12
2023-04-15T14:09:52.405Z,6.02
2023-04-15T14:12:39.321Z,5.92
2023-04-15T14:15:26.347Z,5.78
2023-04-15T14:18:13.398Z,5.89
2023-04-15T14:21:00.334Z,5.91
2023-04-15T14:23:47.233Z,5.93
2023-04-15T14:26:34.271Z,5.92
2023-04-15T14:29:21.175Z,5.92
2023-04-15T14:32:12.260Z,5.88
2023-04-15T14:34:59.812Z,5.85
2023-04-15T14:37:46.730Z,5.85
2023-04-15T14:40:33.868Z,5.91
2023-04-15T14:43:21.749Z,5.95
2023-04-15T14:46:09.124Z,5.97
2023-04-15T14:48:56.153Z,5.98
2023-04-15T14:51:43.177Z,6.07
2023-04-15T14:54:30.528Z,6.00
2023-04-15T14:57:17.409Z,6.10
2023-04-15T15:00:05.392Z,6.00
2023-04-15T15:02:52.387Z,5.91
2023-04-15T15:05:41.454Z,5.90
2023-04-15T15:08:28.444Z,5.81
2023-04-15T15:11:16.242Z,5.93
2023-04-15T15:14:03.139Z,5.83
2023-04-15T15:16:50.202Z,5.92
2023-04-15T15:19:37.551Z,5.79
2023-04-15T15:22:26.192Z,5.79
2023-04-15T15:25:13.077Z,5.89
2023-04-15T15:28:00.271Z,5.90
2023-04-15T15:30:47.269Z,5.93
2023-04-15T15:33:34.263Z,5.98
2023-04-15T15:36:21.278Z,5.87
2023-04-15T15:39:08.658Z,5.90
2023-04-15T15:41:55.838Z,5.88
2023-04-15T15:44:42.763Z,5.98
2023-04-15T15:47:29.952Z,6.02
2023-04-15T15:50:17.032Z,6.02
2023-04-15T15:53:03.978Z,6.02
2023-04-15T15:55:53.166Z,6.05
2023-04-15T15:58:43.754Z,5.95
2023-04-15T16:01:30.771Z,5.95
2023-04-15T16:04:17.846Z,6.00
2023-04-15T16:07:05.115Z,5.97
2023-04-15T16:09:52.981Z,5.95
2023-04-15T16:12:41.324Z,5.87
2023-04-15T16:15:28.422Z,5.91
2023-04-15T16:18:15.610Z,5.88
2023-04-15T16:21:02.583Z,5.83
2023-04-15T16:23:49.482Z,5.79
2023-04-15T16:26:36.760Z,5.70
2023-04-15T16:29:23.671Z,5.71
2023-04-15T16:32:11.107Z,5.74
2023-04-15T16:34:58.090Z,5.79
2023-04-15T16:37:45.012Z,5.79
2023-04-15T16:40:33.036Z,5.89
2023-04-15T16:43:20.126Z,5.75
2023-04-15T16:46:07.276Z,5.71
2023-04-15T16:48:54.212Z,5.75
2023-04-15T16:51:41.129Z,5.77
2023-04-15T16:54:29.744Z,5.80
2023-04-15T16:57:16.681Z,5.77
2023-04-15T17:00:05.993Z,5.82
2023-04-15T17:02:53.143Z,5.79
2023-04-15T17:05:40.350Z,5.74
2023-04-15T17:08:27.478Z,5.71
2023-04-15T17:11:15.475Z,5.72
2023-04-15T17:14:03.157Z,5.64
2023-04-15T17:16:50.131Z,5.70
2023-04-15T17:19:37.671Z,5.65
2023-04-15T17:22:24.576Z,5.66
2023-04-15T17:25:11.584Z,5.65
2023-04-15T17:27:58.501Z,5.59
2023-04-15T17:30:45.518Z,5.62
2023-04-15T17:34:00.784Z,5.60
2023-04-15T17:36:39.486Z,5.58
2023-04-15T17:39:26.397Z,5.54
2023-04-15T17:42:13.749Z,5.55
2023-04-15T17:45:00.677Z,5.54
2023-04-15T17:47:48.189Z,5.49
2023-04-15T17:50:35.477Z,5.44
2023-04-15T17:53:22.615Z,5.56
2023-04-15T17:56:09.555Z,5.57
2023-04-15T17:58:57.062Z,5.55
2023-04-15T18:01:45.463Z,5.60
2023-04-15T18:04:32.773Z,5.60
2023-04-15T18:07:19.748Z,5.66
2023-04-15T18:10:08.364Z,5.64
2023-04-15T18:12:55.911Z,5.65
2023-04-15T18:15:44.597Z,5.60
2023-04-15T18:18:33.818Z,5.65
2023-04-15T18:21:20.696Z,5.67
2023-04-15T18:24:07.776Z,5.67
2023-04-15T18:26:54.794Z,5.60
2023-04-15T18:29:42.875Z,5.60
2023-04-15T18:32:32.569Z,5.64
2023-04-15T18:35:20.640Z,5.58
2023-04-15T18:38:08.018Z,5.56
2023-04-15T18:40:54.951Z,5.56
2023-04-15T18:43:42.150Z,5.63
2023-04-15T18:46:29.309Z,5.57
2023-04-15T18:49:16.198Z,5.46
2023-04-15T18:52:04.111Z,5.35
2023-04-15T18:54:51.027Z,5.27
2023-04-15T18:57:42.516Z,5.36
2023-04-15T19:00:31.376Z,5.30
2023-04-15T19:03:18.417Z,5.36
2023-04-15T19:06:05.554Z,5.50
2023-04-15T19:08:52.501Z,5.56
2023-04-15T19:11:39.502Z,5.47
2023-04-15T19:14:26.536Z,5.48
2023-04-15T19:17:13.796Z,5.49
2023-04-15T19:20:00.743Z,5.57
2023-04-15T19:22:48.224Z,5.50
2023-04-15T19:25:35.150Z,5.49
2023-04-15T19:28:22.083Z,5.46
2023-04-15T19:31:09.047Z,5.60
2023-04-15T19:33:56.772Z,5.62
2023-04-15T19:36:43.805Z,5.60
2023-04-15T19:39:30.828Z,5.60
2023-04-15T19:42:18.089Z,5.58
2023-04-15T19:45:05.664Z,5.59
2023-04-15T19:47:53.632Z,5.61
2023-04-15T19:50:40.601Z,5.57
2023-04-15T19:53:27.746Z,5.54
2023-04-15T19:56:14.650Z,5.64
2023-04-15T19:59:02.277Z,5.60
2023-04-15T20:01:49.428Z,5.60
2023-04-15T20:04:36.355Z,5.62
2023-04-15T20:07:23.361Z,5.63
2023-04-15T20:10:13.041Z,5.65
2023-04-15T20:13:00.473Z,5.64
2023-04-15T20:15:47.426Z,5.63
2023-04-15T20:18:34.846Z,5.60
2023-04-15T20:21:21.732Z,5.53
2023-04-15T20:24:08.938Z,5.49
2023-04-15T20:26:57.547Z,5.62
2023-04-15T20:29:44.416Z,5.54
2023-04-15T20:32:35.455Z,5.53
2023-04-15T20:35:23.052Z,5.51
2023-04-15T20:38:10.056Z,5.53
2023-04-15T20:40:58.131Z,5.46
2023-04-15T20:43:45.058Z,5.41
2023-04-15T20:46:31.950Z,5.46
2023-04-15T20:49:18.937Z,5.47
2023-04-15T20:52:07.846Z,5.43
2023-04-15T20:54:54.779Z,5.45
2023-04-15T20:57:41.667Z,5.52
2023-04-15T21:00:29.388Z,5.48
2023-04-15T21:03:16.739Z,5.44
2023-04-15T21:06:03.843Z,5.39
2023-04-15T21:08:52.417Z,5.36
2023-04-15T21:11:57.208Z,5.40
2023-04-15T21:14:46.311Z,5.38
2023-04-15T21:17:35.309Z,5.33
2023-04-15T21:20:22.223Z,5.33
2023-04-15T21:23:09.667Z,5.34
2023-04-15T21:25:58.949Z,5.31
2023-04-15T21:28:45.865Z,5.29
2023-04-15T21:31:32.785Z,5.37
2023-04-15T21:34:19.716Z,5.37
2023-04-15T21:37:06.604Z,5.32
2023-04-15T21:39:53.548Z,5.40
2023-04-15T21:42:41.666Z,5.45
2023-04-15T21:45:28.603Z,5.38
2023-04-15T21:48:15.495Z,5.36
2023-04-15T21:51:02.588Z,5.40
2023-04-15T21:53:49.779Z,5.44
2023-04-15T21:56:37.887Z,5.48
2023-04-15T21:59:24.823Z,5.38
2023-04-15T22:02:12.091Z,5.45
2023-04-15T22:04:59.045Z,5.35
2023-04-15T22:07:46.171Z,5.42
2023-04-15T22:10:33.114Z,5.48
2023-04-15T22:13:20.602Z,5.38
2023-04-15T22:16:07.544Z,5.30
2023-04-15T22:18:57.265Z,5.29
2023-04-15T22:21:44.173Z,5.29
2023-04-15T22:24:40.421Z,5.26
2023-04-15T22:27:27.539Z,5.28
2023-04-15T22:30:14.513Z,5.35
2023-04-15T22:33:01.572Z,5.36
2023-04-15T22:35:48.579Z,5.29
2023-04-15T22:38:35.687Z,5.24
2023-04-15T22:41:22.849Z,5.35
2023-04-15T22:44:09.735Z,5.39
2023-04-15T22:46:56.646Z,5.35
2023-04-15T22:49:44.859Z,5.30
2023-04-15T22:52:31.902Z,5.30
2023-04-15T22:55:18.956Z,5.35
2023-04-15T22:58:05.952Z,5.27
2023-04-15T23:00:52.928Z,5.22
2023-04-15T23:03:56.718Z,5.18
2023-04-15T23:06:46.745Z,5.19
2023-04-15T23:09:33.670Z,5.12
2023-04-15T23:12:20.597Z,5.10
2023-04-15T23:15:08.466Z,5.17
2023-04-15T23:17:55.388Z,5.22
2023-04-15T23:20:42.373Z,5.16
2023-04-15T23:23:29.347Z,5.09
2023-04-15T23:26:16.459Z,5.13
2023-04-15T23:29:03.373Z,5.11
2023-04-15T23:31:50.348Z,5.07
2023-04-15T23:34:37.408Z,5.08
2023-04-15T23:37:24.374Z,5.07
2023-04-15T23:40:12.275Z,5.07
2023-04-15T23:42:59.182Z,5.06
2023-04-15T23:45:46.212Z,5.08
2023-04-15T23:48:33.282Z,5.09
2023-04-15T23:51:20.312Z,5.12
2023-04-15T23:54:07.310Z,5.14
2023-04-15T23:56:54.232Z,5.20
2023-04-15T23:59:41.127Z,5.15
